Time;durP1;ratioP1;P1;durP2;ratioP2;P2;SDS_P1;SDS_P2;PMS_P1;PMS_P2;Temp;Humidity;BMP_temperature;BMP_pressure;BME280_temperature;BME280_humidity;BME280_pressure;Samples;Min_cycle;Max_cycle;Signal;HPM_P1;HPM_P2
2022/09/22 00:01:04;;;;;;;2.55;2.35;;;;;;;17.53;54.01;101499.65;1414547;100;21266;-53
2022/09/22 00:03:34;;;;;;;2.30;2.00;;;;;;;17.50;54.19;101494.03;1457371;95;21153;-56
2022/09/22 00:06:05;;;;;;;2.25;2.05;;;;;;;17.50;54.23;101488.77;1502658;94;21649;-55
2022/09/22 00:08:34;;;;;;;2.67;2.00;;;;;;;17.50;54.29;101486.59;1457316;98;21128;-53
2022/09/22 00:11:11;;;;;;;2.08;1.87;;;;;;;17.50;54.32;101491.86;1483884;95;21846;-53
2022/09/22 00:13:37;;;;;;;2.52;2.10;;;;;;;17.51;54.38;101494.45;1411665;99;21166;-55
2022/09/22 00:16:07;;;;;;;3.12;2.60;;;;;;;17.51;54.52;101488.33;1388159;101;21199;-53
2022/09/22 00:18:35;;;;;;;2.92;2.30;;;;;;;17.53;54.51;101489.98;1421983;99;21193;-53
2022/09/22 00:21:11;;;;;;;5.03;2.62;;;;;;;17.57;54.44;101491.58;1430349;99;21230;-54
2022/09/22 00:23:38;;;;;;;3.05;2.70;;;;;;;17.60;54.37;101491.44;1372210;104;21208;-55
2022/09/22 00:26:09;;;;;;;3.22;2.60;;;;;;;17.67;54.19;101499.52;1371555;103;21622;-53
2022/09/22 00:28:37;;;;;;;3.30;2.30;;;;;;;17.70;54.11;101494.11;1358827;104;21134;-54
2022/09/22 00:31:11;;;;;;;3.65;2.83;;;;;;;17.75;53.96;101493.94;1358600;106;21218;-53
2022/09/22 00:33:39;;;;;;;3.87;3.10;;;;;;;17.79;53.47;101494.21;1346636;104;21140;-55
2022/09/22 00:36:06;;;;;;;3.20;2.70;;;;;;;17.80;52.07;101491.51;1351322;104;21676;-54
2022/09/22 00:38:33;;;;;;;2.55;2.33;;;;;;;17.79;51.08;101495.08;1346544;104;21229;-55
2022/09/22 00:41:00;;;;;;;3.20;2.72;;;;;;;17.74;50.53;101494.39;1356163;105;21125;-57
2022/09/22 00:43:29;;;;;;;2.85;2.65;;;;;;;17.67;50.39;101492.94;1359201;105;21153;-55
2022/09/22 00:46:02;;;;;;;3.85;2.40;;;;;;;17.61;50.32;101501.07;1358601;105;21637;-53
2022/09/22 00:48:31;;;;;;;4.25;2.62;;;;;;;17.55;50.45;101494.73;1364247;103;21222;-60
2022/09/22 00:50:59;;;;;;;2.70;2.50;;;;;;;17.51;50.45;101498.84;1362915;103;21125;-54
2022/09/22 00:53:26;;;;;;;2.60;2.17;;;;;;;17.49;50.31;101500.23;1361055;105;21676;-52
2022/09/22 00:56:10;;;;;;;2.35;2.10;;;;;;;17.45;50.07;101493.34;1361714;105;21210;-57
2022/09/22 00:58:41;;;;;;;5.08;2.92;;;;;;;17.42;50.10;101493.89;1383123;101;21347;-53
2022/09/22 01:01:08;;;;;;;3.40;2.62;;;;;;;17.36;50.16;101500.25;1367389;104;21730;-55
2022/09/22 01:03:35;;;;;;;4.90;2.95;;;;;;;17.31;50.43;101492.98;1366412;103;21203;-58
2022/09/22 01:06:04;;;;;;;2.92;2.62;;;;;;;17.26;50.58;101490.13;1381264;101;21129;-57
2022/09/22 01:08:32;;;;;;;2.85;2.50;;;;;;;17.21;50.88;101485.04;1388083;103;21144;-52
2022/09/22 01:10:59;;;;;;;2.52;2.33;;;;;;;17.17;51.12;101486.07;1398391;101;21641;-56
2022/09/22 01:13:55;;;;;;;3.47;2.42;;;;;;;17.16;51.07;101487.00;1418111;100;21181;-54
2022/09/22 01:16:37;;;;;;;2.90;2.58;;;;;;;17.15;51.00;101493.16;1415217;101;21705;-55
2022/09/22 01:19:26;;;;;;;3.45;2.75;;;;;;;17.12;50.96;101485.40;1423628;97;21274;-52
2022/09/22 01:22:02;;;;;;;3.37;2.52;;;;;;;17.09;50.97;101485.05;1455554;98;21146;-55
2022/09/22 01:24:55;;;;;;;3.50;3.20;;;;;;;17.05;50.99;101489.16;1471191;96;21096;-55
2022/09/22 01:28:02;;;;;;;3.10;2.65;;;;;;;16.99;51.15;101494.19;1459949;97;21140;-55
2022/09/22 01:30:43;;;;;;;3.45;2.90;;;;;;;16.96;51.63;101500.03;1428855;99;21159;-56
2022/09/22 01:33:32;;;;;;;4.05;3.10;;;;;;;16.93;51.65;101498.81;1420142;99;21146;-53
2022/09/22 01:36:29;;;;;;;4.47;3.45;;;;;;;16.91;51.41;101494.06;1408927;100;21183;-52
2022/09/22 01:39:16;;;;;;;4.37;2.90;;;;;;;16.89;51.45;101501.15;1388565;102;21210;-51
2022/09/22 01:41:57;;;;;;;3.20;2.90;;;;;;;16.85;51.89;101494.28;1372524;103;21141;-54
2022/09/22 01:44:51;;;;;;;;;;;;;;;16.84;53.60;101497.81;1399947;99;21213;-59
2022/09/22 01:47:23;;;;;;;2.60;2.40;;;;;;;16.80;54.61;101491.81;1446538;97;20476;-53
2022/09/22 01:49:53;;;;;;;2.62;2.42;;;;;;;16.76;55.23;101488.03;1391502;103;21771;-51
2022/09/22 01:52:24;;;;;;;2.47;2.27;;;;;;;16.72;55.79;101485.97;1409113;100;21121;-51
2022/09/22 01:55:01;;;;;;;2.50;2.30;;;;;;;16.71;56.21;101491.30;1375062;102;21161;-51
2022/09/22 01:57:49;;;;;;;2.20;2.00;;;;;;;16.72;56.52;101485.11;1337071;104;21150;-54
2022/09/22 02:00:16;;;;;;;3.25;2.42;;;;;;;16.71;56.64;101486.87;1357075;104;21727;-53
2022/09/22 02:03:04;;;;;;;3.47;2.22;;;;;;;16.72;56.75;101487.73;1360639;105;21707;-55
2022/09/22 02:05:44;;;;;;;2.50;2.22;;;;;;;16.76;56.71;101481.45;1362224;105;21280;-56
2022/09/22 02:08:16;;;;;;;2.50;2.30;;;;;;;16.78;56.67;101482.26;1299987;109;21717;-52
2022/09/22 02:10:45;;;;;;;2.27;2.00;;;;;;;16.79;56.60;101486.62;1295108;109;21736;-55
2022/09/22 02:13:11;;;;;;;3.27;2.00;;;;;;;16.83;56.60;101485.59;1283896;109;21190;-52
2022/09/22 02:18:30;;;;;;;3.10;2.47;;;;;;;16.83;56.76;101485.59;1269970;112;21212;-55
2022/09/22 02:20:57;;;;;;;2.12;2.02;;;;;;;16.87;56.63;101489.83;1279948;110;21210;-53
2022/09/22 02:23:24;;;;;;;3.40;2.12;;;;;;;16.87;56.67;101484.57;1279619;111;21667;-53
2022/09/22 02:25:51;;;;;;;2.62;2.42;;;;;;;16.86;56.81;101488.09;1281579;111;21183;-52
2022/09/22 02:28:18;;;;;;;4.05;2.65;;;;;;;16.85;57.07;101483.77;1281905;111;21155;-55
2022/09/22 02:30:46;;;;;;;2.85;2.60;;;;;;;16.84;57.17;101474.16;1280993;110;21182;-57
2022/09/22 02:33:12;;;;;;;3.55;2.60;;;;;;;16.82;57.17;101476.84;1280277;111;21252;-54
2022/09/22 02:35:39;;;;;;;2.95;2.62;;;;;;;16.80;57.18;101473.86;1281308;110;21167;-56
2022/09/22 02:38:20;;;;;;;2.95;2.55;;;;;;;16.78;57.34;101467.80;1270174;111;21243;-57
2022/09/22 02:41:07;;;;;;;7.28;2.60;;;;;;;16.77;57.22;101470.05;1279200;111;21186;-59
2022/09/22 02:44:04;;;;;;;2.52;2.02;;;;;;;16.75;57.25;101466.62;1280085;110;21243;-55
2022/09/22 02:46:45;;;;;;;3.80;2.72;;;;;;;16.74;57.50;101463.57;1285361;111;21178;-57
2022/09/22 02:49:16;;;;;;;2.00;1.90;;;;;;;16.76;57.51;101467.00;1292401;110;21153;-57
2022/09/22 02:51:42;;;;;;;2.92;2.58;;;;;;;16.76;57.33;101460.44;1322898;107;21250;-55
2022/09/22 02:54:09;;;;;;;2.42;2.22;;;;;;;16.75;57.17;101462.67;1379517;99;21156;-56
2022/09/22 02:56:37;;;;;;;2.47;1.82;;;;;;;16.71;57.39;101462.38;1402094;102;21170;-54
2022/09/22 02:59:03;;;;;;;2.50;2.30;;;;;;;16.69;57.30;101464.21;1423417;99;21680;-55
2022/09/22 03:01:30;;;;;;;2.50;2.10;;;;;;;16.67;57.26;101458.16;1419654;99;21132;-55
2022/09/22 03:03:57;;;;;;;2.45;2.08;;;;;;;16.66;57.15;101459.05;1454319;94;21121;-53
2022/09/22 03:06:23;;;;;;;4.95;2.70;;;;;;;16.66;57.10;101460.36;1511841;93;21615;-56
2022/09/22 03:08:51;;;;;;;3.35;2.30;;;;;;;16.63;57.20;101453.92;1664240;86;21589;-53
2022/09/22 03:11:18;;;;;;;2.65;2.35;;;;;;;16.63;57.27;101452.61;1668992;86;21049;-57
2022/09/22 03:13:44;;;;;;;2.35;2.15;;;;;;;16.62;57.29;101450.87;1669258;86;21112;-54
2022/09/22 03:16:11;;;;;;;2.47;2.27;;;;;;;16.60;57.57;101453.56;1671225;86;21072;-53
2022/09/22 03:18:39;;;;;;;4.30;2.40;;;;;;;16.61;57.52;101453.12;1720259;83;21026;-53
2022/09/22 03:21:06;;;;;;;2.47;2.00;;;;;;;16.60;57.41;101462.76;1729963;82;20993;-52
2022/09/22 03:23:34;;;;;;;3.35;2.10;;;;;;;16.58;57.47;101455.84;1729338;83;21013;-51
2022/09/22 03:26:01;;;;;;;2.25;2.05;;;;;;;16.56;57.38;101458.97;1729412;81;21021;-52
2022/09/22 03:28:28;;;;;;;2.92;2.35;;;;;;;16.56;57.62;101468.17;1728814;81;21033;-54
2022/09/22 03:30:55;;;;;;;2.55;2.33;;;;;;;16.53;57.68;101460.37;1691076;84;21054;-57
2022/09/22 03:33:22;;;;;;;2.70;2.30;;;;;;;16.51;57.80;101464.83;1691327;85;21588;-55
2022/09/22 03:35:49;;;;;;;2.77;2.52;;;;;;;16.50;57.76;101468.39;1675313;85;21100;-53
2022/09/22 03:38:15;;;;;;;2.90;2.60;;;;;;;16.50;57.84;101474.51;1691804;85;21002;-53
2022/09/22 03:40:51;;;;;;;2.47;2.27;;;;;;;16.51;57.88;101480.59;1691613;83;21037;-50
2022/09/22 03:43:19;;;;;;;2.85;2.60;;;;;;;16.49;57.85;101478.44;1689233;84;21018;-53
2022/09/22 03:45:46;;;;;;;3.95;3.33;;;;;;;16.45;57.89;101474.20;1691284;85;21184;-58
2022/09/22 03:48:12;;;;;;;2.55;2.35;;;;;;;16.43;58.03;101472.09;1691796;84;21545;-54
2022/09/22 03:50:39;;;;;;;3.10;2.40;;;;;;;16.43;57.83;101469.02;1694617;85;21040;-52
2022/09/22 03:53:05;;;;;;;2.77;2.30;;;;;;;16.40;57.70;101473.08;1679576;85;21105;-52
2022/09/22 03:55:33;;;;;;;3.50;3.20;;;;;;;16.37;57.89;101473.61;1690363;85;21050;-55
2022/09/22 03:58:00;;;;;;;3.87;2.58;;;;;;;16.37;58.04;101477.55;1692397;84;21510;-52
2022/09/22 04:00:27;;;;;;;4.15;2.80;;;;;;;16.38;58.07;101479.28;1675393;85;21101;-53
2022/09/22 04:02:55;;;;;;;2.98;2.70;;;;;;;16.36;57.99;101481.11;1708588;81;21104;-55
2022/09/22 04:05:22;;;;;;;2.77;2.58;;;;;;;16.34;57.95;101478.55;1704078;84;21076;-55
2022/09/22 04:07:50;;;;;;;4.37;2.72;;;;;;;16.33;57.96;101478.13;1704430;84;21041;-58
2022/09/22 04:10:19;;;;;;;2.98;2.67;;;;;;;16.33;58.01;101485.13;1704873;84;21043;-55
2022/09/22 04:12:47;;;;;;;5.08;2.80;;;;;;;16.31;58.16;101485.20;1704397;84;21049;-57
2022/09/22 04:15:14;;;;;;;3.50;2.72;;;;;;;16.28;58.09;101479.58;1699290;84;21033;-51
2022/09/22 04:17:41;;;;;;;4.60;3.20;;;;;;;16.25;58.24;101484.95;1704465;84;21101;-61
2022/09/22 04:20:10;;;;;;;3.33;3.02;;;;;;;16.24;58.25;101482.36;1702748;84;21065;-55
2022/09/22 04:22:38;;;;;;;2.60;2.40;;;;;;;16.22;58.13;101483.73;1704485;84;21041;-59
2022/09/22 04:25:08;;;;;;;2.60;2.40;;;;;;;16.20;58.24;101482.92;1703983;84;21050;-51
2022/09/22 04:27:36;;;;;;;3.10;2.80;;;;;;;16.19;58.13;101485.16;1702394;84;21066;-50
2022/09/22 04:30:04;;;;;;;3.08;2.77;;;;;;;16.17;58.23;101493.55;1704617;84;21069;-55
2022/09/22 04:32:31;;;;;;;3.15;2.72;;;;;;;16.15;58.30;101487.48;1704694;84;21034;-53
2022/09/22 04:34:58;;;;;;;3.17;2.87;;;;;;;16.15;58.38;101482.69;1704712;84;21534;-54
2022/09/22 04:37:25;;;;;;;3.05;2.52;;;;;;;16.15;58.37;101484.86;1699367;84;21090;-49
2022/09/22 04:39:53;;;;;;;3.20;2.90;;;;;;;16.14;58.33;101485.75;1704140;84;21094;-53
2022/09/22 04:42:20;;;;;;;2.95;2.72;;;;;;;15.95;58.92;101480.69;1704237;84;21546;-59
2022/09/22 04:44:47;;;;;;;2.60;2.40;;;;;;;15.80;59.53;101486.45;1704011;84;21069;-59
2022/09/22 04:47:13;;;;;;;2.62;2.42;;;;;;;15.77;59.54;101481.28;1704166;84;21057;-55
2022/09/22 04:49:40;;;;;;;2.80;2.60;;;;;;;15.75;59.67;101488.79;1694673;84;21110;-53
2022/09/22 04:52:08;;;;;;;2.92;2.72;;;;;;;15.74;59.90;101491.89;1704718;84;21057;-55
2022/09/22 04:54:35;;;;;;;2.58;2.37;;;;;;;15.73;59.77;101486.67;1702747;84;21073;-53
2022/09/22 04:57:01;;;;;;;4.53;2.65;;;;;;;15.70;59.73;101486.34;1699413;84;21097;-56
2022/09/22 04:59:28;;;;;;;3.35;2.90;;;;;;;15.67;59.89;101491.66;1704480;84;21526;-50
2022/09/22 05:01:55;;;;;;;3.27;2.55;;;;;;;15.66;60.13;101493.87;1703163;84;21107;-54
2022/09/22 05:04:21;;;;;;;5.75;2.87;;;;;;;15.66;60.02;101495.17;1690285;85;21574;-52
2022/09/22 05:06:48;;;;;;;2.80;2.47;;;;;;;15.69;59.97;101502.97;1690456;85;21083;-55
2022/09/22 05:09:15;;;;;;;5.42;2.40;;;;;;;15.74;60.05;101511.58;1685403;85;21114;-54
2022/09/22 05:11:43;;;;;;;3.10;2.77;;;;;;;15.75;59.63;101513.27;1689831;85;21035;-53
2022/09/22 05:14:11;;;;;;;4.03;2.70;;;;;;;15.73;59.52;101515.53;1689282;85;22168;-55
2022/09/22 05:16:38;;;;;;;2.77;2.58;;;;;;;15.71;59.67;101523.45;1690109;85;21511;-54
2022/09/22 05:19:04;;;;;;;2.60;2.20;;;;;;;15.70;59.69;101528.31;1688976;85;21084;-55
2022/09/22 05:21:31;;;;;;;3.80;2.70;;;;;;;15.69;59.69;101523.95;1689831;85;21059;-59
2022/09/22 05:23:57;;;;;;;3.33;2.42;;;;;;;15.70;59.72;101532.70;1689873;85;21555;-54
2022/09/22 05:26:24;;;;;;;2.95;2.35;;;;;;;15.71;59.85;101536.58;1689704;85;21086;-55
2022/09/22 05:28:51;;;;;;;3.83;3.10;;;;;;;15.73;59.96;101538.70;1688410;85;21058;-53
2022/09/22 05:31:18;;;;;;;4.00;2.72;;;;;;;15.75;59.98;101538.64;1689839;85;21066;-55
2022/09/22 05:33:45;;;;;;;3.12;2.50;;;;;;;15.74;60.04;101537.81;1689507;85;22268;-52
2022/09/22 05:36:12;;;;;;;4.35;2.42;;;;;;;15.76;60.04;101542.56;1689598;85;21063;-57
2022/09/22 05:38:39;;;;;;;3.25;2.75;;;;;;;15.80;60.16;101537.63;1689679;85;21078;-52
2022/09/22 05:41:06;;;;;;;2.90;2.60;;;;;;;15.84;60.10;101535.31;1689804;85;21062;-51
2022/09/22 05:43:32;;;;;;;3.17;2.87;;;;;;;15.88;59.95;101542.18;1690305;85;21555;-55
2022/09/22 05:45:59;;;;;;;3.77;2.95;;;;;;;16.22;58.98;101528.82;1690381;85;20999;-52
2022/09/22 05:48:27;;;;;;;3.10;2.80;;;;;;;16.29;58.66;101529.91;1689914;85;21070;-53
2022/09/22 05:50:53;;;;;;;5.40;3.02;;;;;;;16.33;58.59;101517.97;1690205;85;21093;-57
2022/09/22 05:53:20;;;;;;;3.58;3.08;;;;;;;16.37;58.38;101522.20;1690432;85;21033;-54
2022/09/22 05:55:46;;;;;;;4.25;3.20;;;;;;;16.39;58.32;101523.02;1689084;85;21070;-54
2022/09/22 05:58:13;;;;;;;3.85;2.70;;;;;;;16.41;58.50;101523.81;1690152;85;21630;-53
2022/09/22 06:00:40;;;;;;;5.30;3.02;;;;;;;16.46;58.36;101520.59;1689651;85;21042;-50
2022/09/22 06:03:06;;;;;;;3.55;2.70;;;;;;;16.52;58.15;101524.36;1689493;84;21149;-58
2022/09/22 06:05:34;;;;;;;4.15;2.95;;;;;;;16.56;58.03;101522.03;1690071;85;21593;-54
2022/09/22 06:08:05;;;;;;;4.10;2.92;;;;;;;16.59;57.84;101533.77;1690218;85;21086;-54
2022/09/22 06:10:34;;;;;;;3.30;3.00;;;;;;;16.61;57.48;101531.95;1690305;85;21094;-55
2022/09/22 06:13:04;;;;;;;2.95;2.65;;;;;;;16.61;57.21;101537.20;1689868;85;21067;-57
2022/09/22 06:15:32;;;;;;;3.00;2.70;;;;;;;16.63;57.16;101534.06;1649505;87;21546;-52
2022/09/22 06:18:00;;;;;;;2.72;2.45;;;;;;;16.65;57.16;101528.30;1627247;88;21010;-52
2022/09/22 06:20:26;;;;;;;3.00;2.70;;;;;;;16.63;56.84;101530.95;1621488;88;21064;-53
2022/09/22 06:22:53;;;;;;;4.15;3.37;;;;;;;16.63;56.75;101530.12;1627818;88;21109;-53
2022/09/22 06:25:20;;;;;;;3.10;2.80;;;;;;;16.59;57.02;101531.97;1616715;88;21147;-50
2022/09/22 06:27:48;;;;;;;2.98;2.72;;;;;;;16.57;56.96;101522.45;1628078;88;21106;-56
2022/09/22 06:30:14;;;;;;;3.02;2.75;;;;;;;16.54;57.16;101525.17;1621746;88;21068;-54
2022/09/22 06:32:42;;;;;;;3.47;3.17;;;;;;;16.53;57.02;101519.49;1628001;88;21171;-53
2022/09/22 06:35:10;;;;;;;4.05;2.87;;;;;;;16.51;57.18;101526.57;1621678;88;21585;-51
2022/09/22 06:37:37;;;;;;;3.52;3.08;;;;;;;16.49;57.06;101525.31;1627999;88;21527;-52
2022/09/22 06:40:07;;;;;;;4.22;3.15;;;;;;;16.47;56.89;101530.18;1621746;88;21584;-53
2022/09/22 06:42:35;;;;;;;5.28;3.37;;;;;;;16.47;56.77;101527.10;1628026;88;21545;-55
2022/09/22 06:45:03;;;;;;;3.42;2.90;;;;;;;16.46;56.75;101527.16;1616304;88;21043;-50
2022/09/22 06:47:31;;;;;;;3.12;2.90;;;;;;;16.47;56.85;101520.98;1627152;88;21538;-59
2022/09/22 06:49:57;;;;;;;2.95;2.72;;;;;;;16.49;56.91;101516.53;1621746;88;21004;-54
2022/09/22 06:52:26;;;;;;;3.50;3.20;;;;;;;16.52;56.81;101513.85;1627816;88;21086;-60
2022/09/22 06:54:55;;;;;;;3.33;2.95;;;;;;;16.58;56.82;101511.87;1621775;88;21083;-57
2022/09/22 06:57:21;;;;;;;3.27;2.98;;;;;;;16.66;56.60;101506.34;1628034;88;21554;-52
2022/09/22 06:59:47;;;;;;;4.05;3.15;;;;;;;16.74;56.65;101504.31;1621567;88;21071;-55
2022/09/22 07:02:14;;;;;;;3.75;2.95;;;;;;;16.82;56.56;101500.95;1628193;88;21609;-57
2022/09/22 07:04:41;;;;;;;4.72;3.40;;;;;;;16.86;56.32;101499.92;1634922;86;21129;-52
2022/09/22 07:07:08;;;;;;;3.12;2.83;;;;;;;16.91;56.26;101501.95;1658849;86;21023;-53
2022/09/22 07:09:35;;;;;;;3.62;3.20;;;;;;;16.97;56.14;101497.78;1658843;86;21107;-51
2022/09/22 07:12:01;;;;;;;3.70;2.80;;;;;;;16.99;55.95;101498.14;1686129;83;21086;-51
2022/09/22 07:14:28;;;;;;;4.25;3.58;;;;;;;17.03;56.12;101496.24;1723552;83;21511;-53
2022/09/22 07:16:55;;;;;;;4.47;2.65;;;;;;;17.09;56.10;101501.28;1725652;82;21068;-56
2022/09/22 07:19:22;;;;;;;3.20;2.90;;;;;;;17.18;56.10;101510.60;1723094;83;21089;-51
2022/09/22 07:21:51;;;;;;;3.27;2.75;;;;;;;17.27;55.84;101505.84;1728943;82;21096;-55
2022/09/22 07:24:36;;;;;;;2.98;2.67;;;;;;;17.37;55.68;101501.12;1708508;83;21047;-58
2022/09/22 07:27:05;;;;;;;4.20;3.08;;;;;;;17.44;55.67;101508.71;1707786;84;21056;-55
2022/09/22 07:29:33;;;;;;;3.30;2.50;;;;;;;17.52;55.49;101514.56;1729317;82;21013;-58
2022/09/22 07:32:01;;;;;;;3.30;3.00;;;;;;;17.58;54.85;101511.70;1726846;82;21526;-53
2022/09/22 07:34:28;;;;;;;3.15;2.85;;;;;;;17.39;55.38;101518.57;1722827;83;21025;-55
2022/09/22 07:36:55;;;;;;;3.45;3.15;;;;;;;17.33;55.98;101517.45;1722920;83;21014;-54
2022/09/22 07:39:23;;;;;;;3.20;2.90;;;;;;;17.36;55.71;101518.67;1723348;83;21051;-54
2022/09/22 07:41:50;;;;;;;2.98;2.67;;;;;;;17.39;55.40;101522.52;1729280;82;21060;-58
2022/09/22 07:47:03;;;;;;;3.20;2.90;;;;;;;17.48;55.47;101524.78;1720085;83;21039;-55
2022/09/22 07:49:30;;;;;;;3.00;2.70;;;;;;;17.54;55.60;101520.63;1723072;83;21021;-53
2022/09/22 07:51:57;;;;;;;3.33;2.67;;;;;;;17.59;55.74;101523.09;1729140;81;21532;-58
2022/09/22 07:54:24;;;;;;;3.42;3.12;;;;;;;17.66;55.69;101519.32;1729498;81;21040;-58
2022/09/22 07:56:57;;;;;;;3.47;2.87;;;;;;;17.74;55.60;101514.13;1726552;82;21072;-53
2022/09/22 07:59:19;;;;;;;3.05;2.67;;;;;;;17.81;55.04;101509.03;1725862;82;21009;-60
2022/09/22 08:01:47;;;;;;;2.80;2.40;;;;;;;17.85;54.84;101504.05;1729145;81;21513;-53
2022/09/22 08:04:21;;;;;;;3.00;2.52;;;;;;;17.91;54.57;101511.32;1689864;82;21584;-56
2022/09/22 08:06:47;;;;;;;3.17;2.77;;;;;;;17.97;54.36;101508.44;1667959;85;21017;-58
2022/09/22 08:09:14;;;;;;;3.30;3.00;;;;;;;18.03;54.13;101512.14;1687775;85;21039;-57
2022/09/22 08:14:10;;;;;;;2.98;2.77;;;;;;;18.16;54.18;101508.06;1629298;88;21557;-53
2022/09/22 08:16:39;;;;;;;3.67;2.60;;;;;;;18.25;54.03;101514.28;1623375;88;21088;-57
2022/09/22 08:21:36;;;;;;;3.85;2.87;;;;;;;18.33;53.62;101508.23;1569813;91;21030;-53
2022/09/22 08:24:05;;;;;;;3.10;2.45;;;;;;;18.38;53.31;101503.64;1569671;91;21126;-54
2022/09/22 08:26:31;;;;;;;4.05;2.40;;;;;;;18.43;52.90;101495.96;1570046;91;21491;-54
2022/09/22 08:28:59;;;;;;;3.85;2.37;;;;;;;18.48;52.43;101494.45;1569613;91;21039;-56
2022/09/22 08:31:26;;;;;;;7.53;2.67;;;;;;;18.52;52.09;101494.72;1569880;91;21574;-59
2022/09/22 08:33:54;;;;;;;4.05;2.87;;;;;;;18.55;52.15;101481.39;1569735;91;21130;-57
2022/09/22 08:36:22;;;;;;;2.47;2.20;;;;;;;18.59;51.75;101480.34;1569787;91;21058;-55
2022/09/22 08:38:49;;;;;;;3.25;2.52;;;;;;;18.63;51.73;101485.88;1564785;91;21095;-56
2022/09/22 08:41:42;;;;;;;4.80;2.50;;;;;;;18.68;51.74;101479.50;1569843;90;21579;-57
2022/09/22 08:44:25;;;;;;;2.90;2.05;;;;;;;18.93;51.13;101471.36;1569189;91;21087;-56
2022/09/22 08:46:52;;;;;;;2.85;2.33;;;;;;;19.20;49.40;101476.71;1569814;91;21062;-60
2022/09/22 08:52:49;;;;;;;4.92;2.20;;;;;;;19.34;49.57;101463.77;1573678;90;21530;-58
2022/09/22 08:55:21;;;;;;;2.60;2.40;;;;;;;19.42;49.23;101466.89;1550990;91;21549;-54
2022/09/22 08:58:06;;;;;;;2.47;2.27;;;;;;;19.49;49.35;101468.30;1550908;91;21109;-55
2022/09/22 09:00:44;;;;;;;2.62;2.42;;;;;;;19.55;49.18;101466.31;1547236;91;21153;-57
2022/09/22 09:03:47;;;;;;;3.25;2.47;;;;;;;19.61;48.75;101466.02;1539457;90;21110;-56
2022/09/22 09:06:40;;;;;;;2.60;2.40;;;;;;;19.64;48.69;101469.85;1548840;91;21079;-56
2022/09/22 09:09:38;;;;;;;2.40;2.20;;;;;;;19.68;48.28;101475.38;1550206;91;21095;-54
2022/09/22 09:12:23;;;;;;;2.02;1.82;;;;;;;19.73;48.45;101471.57;1627332;86;21568;-52
2022/09/22 09:14:58;;;;;;;2.42;2.12;;;;;;;19.82;48.04;101488.77;1630418;86;21094;-53
2022/09/22 09:17:31;;;;;;;2.35;2.15;;;;;;;19.89;48.33;101488.84;1551853;91;21167;-54
2022/09/22 09:20:06;;;;;;;3.05;2.27;;;;;;;19.97;48.33;101476.14;1537296;91;22235;-56
2022/09/22 09:22:39;;;;;;;3.17;2.70;;;;;;;20.05;47.87;101466.05;1533916;91;21080;-54
2022/09/22 09:25:22;;;;;;;2.90;2.70;;;;;;;20.13;47.94;101473.13;1564776;91;21106;-53
2022/09/22 09:27:56;;;;;;;2.67;2.47;;;;;;;20.17;47.69;101477.33;1559184;91;21042;-52
2022/09/22 09:30:23;;;;;;;3.35;2.20;;;;;;;20.20;47.26;101482.48;1526309;93;21145;-56
2022/09/22 09:32:59;;;;;;;5.17;2.00;;;;;;;19.97;47.30;101486.22;1551072;92;21559;-56
2022/09/22 09:35:47;;;;;;;2.25;2.05;;;;;;;19.89;47.17;101479.59;1533178;92;21047;-54
2022/09/22 09:38:16;;;;;;;1.90;1.80;;;;;;;19.91;46.63;101481.70;1481300;96;21119;-55
2022/09/22 09:40:48;;;;;;;1.75;1.65;;;;;;;19.94;46.21;101480.24;1465725;97;21113;-57
2022/09/22 09:43:15;;;;;;;3.72;2.17;;;;;;;19.96;46.00;101474.42;1458053;97;21871;-57
2022/09/22 09:46:10;;;;;;;2.30;2.10;;;;;;;20.00;45.87;101473.33;1487998;96;21558;-53
2022/09/22 09:48:57;;;;;;;2.17;1.98;;;;;;;20.02;45.77;101472.33;1465700;97;21149;-58
2022/09/22 09:51:23;;;;;;;2.15;1.95;;;;;;;20.05;45.60;101472.66;1480297;94;21070;-54
2022/09/22 09:53:51;;;;;;;2.83;1.80;;;;;;;20.08;45.62;101471.16;1511980;92;21116;-54
2022/09/22 09:56:24;;;;;;;2.75;2.50;;;;;;;20.10;45.91;101466.66;1569757;90;21045;-57
2022/09/22 10:01:49;;;;;;;2.58;2.30;;;;;;;20.10;46.13;101457.41;1581549;89;21075;-60
2022/09/22 10:04:36;;;;;;;3.33;2.40;;;;;;;20.13;45.56;101465.20;1584178;89;21549;-53
2022/09/22 10:07:15;;;;;;;2.85;2.50;;;;;;;20.16;45.09;101455.78;1587185;89;21057;-55
2022/09/22 10:09:42;;;;;;;2.70;2.17;;;;;;;20.17;45.73;101444.30;1605075;87;21053;-53
2022/09/22 10:12:28;;;;;;;3.15;2.58;;;;;;;20.20;45.97;101433.59;1613509;87;21096;-53
2022/09/22 10:14:59;;;;;;;2.60;2.40;;;;;;;20.25;45.67;101436.87;1547865;92;21113;-57
2022/09/22 10:17:39;;;;;;;3.42;3.00;;;;;;;20.31;45.65;101437.88;1506439;95;21629;-52
2022/09/22 10:20:20;;;;;;;3.22;2.92;;;;;;;20.34;45.59;101424.48;1505306;93;21066;-54
2022/09/22 10:22:47;;;;;;;3.43;2.73;;;;;;;20.38;45.78;101428.67;1479609;95;21078;-55
2022/09/22 10:25:26;;;;;;;4.37;3.35;;;;;;;20.41;45.64;101429.86;1500165;94;21219;-52
2022/09/22 10:28:09;;;;;;;2.83;2.55;;;;;;;20.44;45.45;101430.17;1478032;95;21175;-55
2022/09/22 10:30:36;;;;;;;4.10;2.52;;;;;;;20.46;45.58;101425.20;1405132;100;21597;-57
2022/09/22 10:33:14;;;;;;;3.17;2.33;;;;;;;20.51;45.45;101422.29;1411659;98;21109;-54
2022/09/22 10:35:54;;;;;;;2.58;2.37;;;;;;;20.53;44.82;101413.81;1447145;98;21117;-57
2022/09/22 10:40:59;;;;;;;2.85;2.50;;;;;;;20.64;45.26;101422.91;1422104;99;21138;-56
2022/09/22 10:43:37;;;;;;;3.08;2.60;;;;;;;20.69;45.05;101424.83;1423548;100;21629;-58
2022/09/22 10:46:31;;;;;;;4.05;2.27;;;;;;;20.73;44.65;101417.11;1394856;101;21109;-54
2022/09/22 10:49:36;;;;;;;3.20;2.02;;;;;;;20.79;44.14;101419.43;1409350;100;21141;-56
2022/09/22 10:52:20;;;;;;;2.40;2.20;;;;;;;20.84;44.44;101416.09;1431023;99;21600;-55
2022/09/22 10:54:58;;;;;;;3.02;2.65;;;;;;;20.86;44.04;101410.70;1397441;101;21638;-56
2022/09/22 10:58:07;;;;;;;2.80;2.60;;;;;;;20.88;44.47;101416.30;1401027;101;21186;-57
2022/09/22 11:00:37;;;;;;;7.05;2.47;;;;;;;20.92;43.92;101416.98;1393179;101;21646;-56
2022/09/22 11:03:18;;;;;;;2.22;2.02;;;;;;;20.92;44.05;101418.31;1401398;101;21125;-58
2022/09/22 11:15:06;;;;;;;3.45;2.60;;;;;;;21.22;42.76;101406.56;1376364;103;21682;-55
2022/09/22 11:18:13;;;;;;;1.90;1.80;;;;;;;21.24;42.59;101402.03;1378749;103;21183;-52
2022/09/22 11:20:43;;;;;;;1.82;1.60;;;;;;;21.24;42.93;101399.39;1392273;102;21139;-52
2022/09/22 11:23:35;;;;;;;2.75;1.95;;;;;;;21.23;42.33;101401.17;1378826;103;21123;-52
2022/09/22 11:26:31;;;;;;;1.72;1.60;;;;;;;21.26;42.07;101396.19;1378700;103;21638;-52
2022/09/22 11:29:24;;;;;;;2.00;1.80;;;;;;;21.28;41.62;101392.98;1482210;94;21090;-55
2022/09/22 11:32:20;;;;;;;2.35;1.62;;;;;;;21.31;41.85;101395.48;1492775;95;21620;-52
2022/09/22 11:35:21;;;;;;;1.90;1.80;;;;;;;21.37;42.22;101387.19;1520968;93;21109;-52
2022/09/22 11:38:02;;;;;;;2.23;1.87;;;;;;;21.46;41.66;101398.10;1518019;94;21121;-53
2022/09/22 11:40:47;;;;;;;4.35;1.95;;;;;;;21.55;41.25;101396.73;1520935;93;21081;-52
2022/09/22 11:43:42;;;;;;;2.47;2.05;;;;;;;21.60;41.31;101392.01;1510013;90;21120;-56
2022/09/22 11:46:36;;;;;;;2.17;1.67;;;;;;;21.63;41.23;101391.84;1582315;89;21105;-54
2022/09/22 11:49:29;;;;;;;2.50;1.90;;;;;;;21.65;40.94;101392.61;1660634;84;21033;-54
2022/09/22 11:52:19;;;;;;;2.30;2.10;;;;;;;21.65;40.85;101392.16;1647830;85;21062;-59
2022/09/22 11:54:58;;;;;;;4.97;2.00;;;;;;;21.65;40.85;101398.77;1639656;85;21125;-57
2022/09/22 11:57:26;;;;;;;2.55;2.17;;;;;;;21.63;40.62;101399.33;1593885;89;21127;-57
2022/09/22 12:00:01;;;;;;;2.45;2.22;;;;;;;21.61;41.05;101388.44;1601554;88;21108;-52
2022/09/22 12:02:54;;;;;;;2.40;2.20;;;;;;;21.57;41.30;101394.84;1571860;89;21145;-55
2022/09/22 12:05:43;;;;;;;2.55;2.10;;;;;;;21.50;42.16;101393.48;1600156;88;21617;-52
2022/09/22 12:08:16;;;;;;;2.30;2.10;;;;;;;21.47;41.86;101394.99;1626472;87;21200;-53
2022/09/22 12:10:44;;;;;;;2.05;1.90;;;;;;;21.39;42.00;101389.28;1586628;88;21166;-56
2022/09/22 12:13:26;;;;;;;1.95;1.70;;;;;;;21.31;41.65;101391.02;1619161;87;21102;-52
2022/09/22 12:16:19;;;;;;;;;;;;;;;21.24;41.18;101391.45;1618523;88;21588;-54
2022/09/22 12:19:20;;;;;;;1.82;1.40;;;;;;;21.16;40.46;101391.03;1602594;88;20442;-57